sensor_id;sensor_type;location;lat;lon;timestamp;temperature;humidity
64012;DHT22;50211;52.768;12.124;2022-12-26T00:01:27;9.10;99.90
64012;DHT22;50211;52.768;12.124;2022-12-26T00:03:54;9.00;99.90
64012;DHT22;50211;52.768;12.124;2022-12-26T00:06:23;9.00;99.90
64012;DHT22;50211;52.768;12.124;2022-12-26T00:08:49;9.10;99.90
64012;DHT22;50211;52.768;12.124;2022-12-26T00:11:16;9.10;99.90
64012;DHT22;50211;52.768;12.124;2022-12-26T00:13:42;9.10;99.90
64012;DHT22;50211;52.768;12.124;2022-12-26T00:16:16;9.10;99.90
64012;DHT22;50211;52.768;12.124;2022-12-26T00:18:42;9.10;99.90
64012;DHT22;50211;52.768;12.124;2022-12-26T00:21:09;9.10;99.90
64012;DHT22;50211;52.768;12.124;2022-12-26T00:23:35;9.10;99.90
64012;DHT22;50211;52.768;12.124;2022-12-26T00:26:03;9.10;99.90
64012;DHT22;50211;52.768;12.124;2022-12-26T00:28:29;9.10;99.90
64012;DHT22;50211;52.768;12.124;2022-12-26T00:30:54;9.10;99.90
64012;DHT22;50211;52.768;12.124;2022-12-26T00:33:20;9.10;99.90
64012;DHT22;50211;52.768;12.124;2022-12-26T00:35:45;9.10;99.90
64012;DHT22;50211;52.768;12.124;2022-12-26T00:38:11;9.10;99.90
64012;DHT22;50211;52.768;12.124;2022-12-26T00:40:36;9.10;99.90
64012;DHT22;50211;52.768;12.124;2022-12-26T00:43:10;9.10;99.90
64012;DHT22;50211;52.768;12.124;2022-12-26T00:45:36;9.10;99.90
64012;DHT22;50211;52.768;12.124;2022-12-26T00:48:02;9.10;99.90
64012;DHT22;50211;52.768;12.124;2022-12-26T00:50:27;9.10;99.90
64012;DHT22;50211;52.768;12.124;2022-12-26T00:52:53;9.20;99.90
64012;DHT22;50211;52.768;12.124;2022-12-26T00:55:19;9.30;99.90
64012;DHT22;50211;52.768;12.124;2022-12-26T00:57:45;9.30;99.90
64012;DHT22;50211;52.768;12.124;2022-12-26T01:00:11;9.20;99.90
64012;DHT22;50211;52.768;12.124;2022-12-26T01:02:36;9.20;99.90
64012;DHT22;50211;52.768;12.124;2022-12-26T01:05:03;9.20;99.90
64012;DHT22;50211;52.768;12.124;2022-12-26T01:07:32;9.20;99.90
64012;DHT22;50211;52.768;12.124;2022-12-26T01:09:59;9.20;99.90
64012;DHT22;50211;52.768;12.124;2022-12-26T01:12:24;9.20;99.90
64012;DHT22;50211;52.768;12.124;2022-12-26T01:14:54;9.20;99.90
64012;DHT22;50211;52.768;12.124;2022-12-26T01:17:19;9.20;99.90
64012;DHT22;50211;52.768;12.124;2022-12-26T01:19:45;9.20;99.90
64012;DHT22;50211;52.768;12.124;2022-12-26T01:22:10;9.20;99.90
64012;DHT22;50211;52.768;12.124;2022-12-26T01:24:36;9.20;99.90
64012;DHT22;50211;52.768;12.124;2022-12-26T01:27:01;9.20;99.90
64012;DHT22;50211;52.768;12.124;2022-12-26T01:29:27;9.20;99.90
64012;DHT22;50211;52.768;12.124;2022-12-26T01:31:52;9.20;99.90
64012;DHT22;50211;52.768;12.124;2022-12-26T01:34:18;9.20;99.90
64012;DHT22;50211;52.768;12.124;2022-12-26T01:36:43;9.20;99.90
64012;DHT22;50211;52.768;12.124;2022-12-26T01:39:09;9.20;99.90
64012;DHT22;50211;52.768;12.124;2022-12-26T01:41:35;9.20;99.90
64012;DHT22;50211;52.768;12.124;2022-12-26T01:44:04;9.20;99.90
64012;DHT22;50211;52.768;12.124;2022-12-26T01:46:43;9.20;99.90
64012;DHT22;50211;52.768;12.124;2022-12-26T01:49:19;9.20;99.90
64012;DHT22;50211;52.768;12.124;2022-12-26T01:51:50;9.20;99.90
64012;DHT22;50211;52.768;12.124;2022-12-26T01:54:18;9.30;99.90
64012;DHT22;50211;52.768;12.124;2022-12-26T01:56:46;9.30;99.90
64012;DHT22;50211;52.768;12.124;2022-12-26T01:59:16;9.30;99.90
64012;DHT22;50211;52.768;12.124;2022-12-26T02:01:44;9.30;99.90
64012;DHT22;50211;52.768;12.124;2022-12-26T02:04:15;9.40;99.90
64012;DHT22;50211;52.768;12.124;2022-12-26T02:07:02;9.40;99.90
64012;DHT22;50211;52.768;12.124;2022-12-26T02:09:28;9.40;99.90
64012;DHT22;50211;52.768;12.124;2022-12-26T02:12:10;9.50;99.90
64012;DHT22;50211;52.768;12.124;2022-12-26T02:14:38;9.50;99.90
64012;DHT22;50211;52.768;12.124;2022-12-26T02:17:05;9.50;99.90
64012;DHT22;50211;52.768;12.124;2022-12-26T02:31:13;9.50;99.90
64012;DHT22;50211;52.768;12.124;2022-12-26T02:44:20;9.50;99.90
64012;DHT22;50211;52.768;12.124;2022-12-26T02:47:29;9.50;99.90
64012;DHT22;50211;52.768;12.124;2022-12-26T02:53:26;9.60;99.90
64012;DHT22;50211;52.768;12.124;2022-12-26T02:56:20;9.60;99.90
64012;DHT22;50211;52.768;12.124;2022-12-26T03:02:50;9.70;99.90
64012;DHT22;50211;52.768;12.124;2022-12-26T03:05:38;9.70;99.90
64012;DHT22;50211;52.768;12.124;2022-12-26T03:08:51;9.70;99.90
64012;DHT22;50211;52.768;12.124;2022-12-26T03:11:38;9.70;99.90
64012;DHT22;50211;52.768;12.124;2022-12-26T03:14:41;9.80;99.90
64012;DHT22;50211;52.768;12.124;2022-12-26T03:17:11;9.80;99.90
64012;DHT22;50211;52.768;12.124;2022-12-26T03:19:58;9.80;99.90
64012;DHT22;50211;52.768;12.124;2022-12-26T03:22:38;9.80;99.90
64012;DHT22;50211;52.768;12.124;2022-12-26T03:25:09;9.80;99.90
64012;DHT22;50211;52.768;12.124;2022-12-26T03:27:54;9.80;99.90
64012;DHT22;50211;52.768;12.124;2022-12-26T03:30:19;9.90;99.90
64012;DHT22;50211;52.768;12.124;2022-12-26T03:33:04;9.90;99.90
64012;DHT22;50211;52.768;12.124;2022-12-26T03:35:33;9.90;99.90
64012;DHT22;50211;52.768;12.124;2022-12-26T03:38:06;9.90;99.90
64012;DHT22;50211;52.768;12.124;2022-12-26T03:40:44;9.90;99.90
64012;DHT22;50211;52.768;12.124;2022-12-26T03:44:01;9.90;99.90
64012;DHT22;50211;52.768;12.124;2022-12-26T03:49:53;10.00;99.90
64012;DHT22;50211;52.768;12.124;2022-12-26T03:55:53;9.90;99.90
64012;DHT22;50211;52.768;12.124;2022-12-26T03:59:08;9.90;99.90
64012;DHT22;50211;52.768;12.124;2022-12-26T04:01:51;9.90;99.90
64012;DHT22;50211;52.768;12.124;2022-12-26T04:04:37;9.90;99.90
64012;DHT22;50211;52.768;12.124;2022-12-26T04:07:36;9.90;99.90
64012;DHT22;50211;52.768;12.124;2022-12-26T04:10:26;9.90;99.90
64012;DHT22;50211;52.768;12.124;2022-12-26T04:13:19;9.80;99.90
64012;DHT22;50211;52.768;12.124;2022-12-26T04:16:13;9.80;99.90
64012;DHT22;50211;52.768;12.124;2022-12-26T04:19:52;9.80;99.90
64012;DHT22;50211;52.768;12.124;2022-12-26T04:22:09;9.80;99.90
64012;DHT22;50211;52.768;12.124;2022-12-26T04:27:45;9.70;99.90
64012;DHT22;50211;52.768;12.124;2022-12-26T04:30:31;9.70;99.90
64012;DHT22;50211;52.768;12.124;2022-12-26T04:33:27;9.60;99.90
64012;DHT22;50211;52.768;12.124;2022-12-26T04:36:22;9.60;99.90
64012;DHT22;50211;52.768;12.124;2022-12-26T04:39:09;9.60;99.90
64012;DHT22;50211;52.768;12.124;2022-12-26T04:41:56;9.60;99.90
64012;DHT22;50211;52.768;12.124;2022-12-26T04:44:42;9.50;99.90
64012;DHT22;50211;52.768;12.124;2022-12-26T04:47:08;9.50;99.90
64012;DHT22;50211;52.768;12.124;2022-12-26T04:49:42;9.50;99.90
64012;DHT22;50211;52.768;12.124;2022-12-26T04:52:26;9.50;99.90
64012;DHT22;50211;52.768;12.124;2022-12-26T04:55:12;9.50;99.90
64012;DHT22;50211;52.768;12.124;2022-12-26T04:57:37;9.50;99.90
64012;DHT22;50211;52.768;12.124;2022-12-26T05:00:03;9.50;99.90
64012;DHT22;50211;52.768;12.124;2022-12-26T05:02:29;9.50;99.90
64012;DHT22;50211;52.768;12.124;2022-12-26T05:05:13;9.50;99.90
64012;DHT22;50211;52.768;12.124;2022-12-26T05:08:24;9.50;99.90
64012;DHT22;50211;52.768;12.124;2022-12-26T05:11:10;9.50;99.90
64012;DHT22;50211;52.768;12.124;2022-12-26T05:13:35;9.40;99.90
64012;DHT22;50211;52.768;12.124;2022-12-26T05:16:01;9.40;99.90
64012;DHT22;50211;52.768;12.124;2022-12-26T05:18:45;9.40;99.90
64012;DHT22;50211;52.768;12.124;2022-12-26T05:21:29;9.40;99.90
64012;DHT22;50211;52.768;12.124;2022-12-26T05:24:13;9.40;99.90
64012;DHT22;50211;52.768;12.124;2022-12-26T05:26:57;9.40;99.90
64012;DHT22;50211;52.768;12.124;2022-12-26T05:29:41;9.40;99.90
64012;DHT22;50211;52.768;12.124;2022-12-26T05:32:07;9.40;99.90
64012;DHT22;50211;52.768;12.124;2022-12-26T05:34:32;9.30;99.90
64012;DHT22;50211;52.768;12.124;2022-12-26T05:36:58;9.30;99.90
64012;DHT22;50211;52.768;12.124;2022-12-26T05:39:24;9.30;99.90
64012;DHT22;50211;52.768;12.124;2022-12-26T05:41:49;9.30;99.90
64012;DHT22;50211;52.768;12.124;2022-12-26T05:44:15;9.30;99.90
64012;DHT22;50211;52.768;12.124;2022-12-26T05:46:40;9.30;99.90
64012;DHT22;50211;52.768;12.124;2022-12-26T05:49:11;9.30;99.90
64012;DHT22;50211;52.768;12.124;2022-12-26T05:51:36;9.20;99.90
64012;DHT22;50211;52.768;12.124;2022-12-26T05:54:02;9.20;99.90
64012;DHT22;50211;52.768;12.124;2022-12-26T05:56:28;9.20;99.90
64012;DHT22;50211;52.768;12.124;2022-12-26T05:58:59;9.30;99.90
64012;DHT22;50211;52.768;12.124;2022-12-26T06:01:26;9.30;99.90
64012;DHT22;50211;52.768;12.124;2022-12-26T06:03:54;9.30;99.90
64012;DHT22;50211;52.768;12.124;2022-12-26T06:06:21;9.20;99.90
64012;DHT22;50211;52.768;12.124;2022-12-26T06:08:48;9.30;99.90
64012;DHT22;50211;52.768;12.124;2022-12-26T06:11:15;9.20;99.90
64012;DHT22;50211;52.768;12.124;2022-12-26T06:13:41;9.20;99.90
64012;DHT22;50211;52.768;12.124;2022-12-26T06:16:09;9.20;99.90
64012;DHT22;50211;52.768;12.124;2022-12-26T06:18:36;9.20;99.90
64012;DHT22;50211;52.768;12.124;2022-12-26T06:21:06;9.10;99.90
64012;DHT22;50211;52.768;12.124;2022-12-26T06:23:32;9.10;99.90
64012;DHT22;50211;52.768;12.124;2022-12-26T06:25:58;9.10;99.90
64012;DHT22;50211;52.768;12.124;2022-12-26T06:28:24;9.10;99.90
64012;DHT22;50211;52.768;12.124;2022-12-26T06:30:50;9.10;99.90
64012;DHT22;50211;52.768;12.124;2022-12-26T06:33:16;9.10;99.90
64012;DHT22;50211;52.768;12.124;2022-12-26T06:35:42;9.00;99.90
64012;DHT22;50211;52.768;12.124;2022-12-26T06:38:08;9.00;99.90
64012;DHT22;50211;52.768;12.124;2022-12-26T06:40:38;9.10;99.90
64012;DHT22;50211;52.768;12.124;2022-12-26T06:43:03;9.10;99.90
64012;DHT22;50211;52.768;12.124;2022-12-26T06:45:29;9.10;99.90
64012;DHT22;50211;52.768;12.124;2022-12-26T06:47:54;9.10;99.90
64012;DHT22;50211;52.768;12.124;2022-12-26T06:50:20;9.10;99.90
64012;DHT22;50211;52.768;12.124;2022-12-26T06:52:47;9.10;99.90
64012;DHT22;50211;52.768;12.124;2022-12-26T06:55:13;9.10;99.90
64012;DHT22;50211;52.768;12.124;2022-12-26T06:57:38;9.10;99.90
64012;DHT22;50211;52.768;12.124;2022-12-26T07:00:04;9.10;99.90
64012;DHT22;50211;52.768;12.124;2022-12-26T07:02:30;9.00;99.90
64012;DHT22;50211;52.768;12.124;2022-12-26T07:04:55;9.10;99.90
64012;DHT22;50211;52.768;12.124;2022-12-26T07:07:21;9.00;99.90
64012;DHT22;50211;52.768;12.124;2022-12-26T07:09:46;9.00;99.90
64012;DHT22;50211;52.768;12.124;2022-12-26T07:12:12;9.00;99.90
64012;DHT22;50211;52.768;12.124;2022-12-26T07:14:37;9.00;99.90
64012;DHT22;50211;52.768;12.124;2022-12-26T07:17:03;8.90;99.90
64012;DHT22;50211;52.768;12.124;2022-12-26T07:19:28;8.90;99.90
64012;DHT22;50211;52.768;12.124;2022-12-26T07:21:54;8.90;99.90
64012;DHT22;50211;52.768;12.124;2022-12-26T07:24:21;8.90;99.90
64012;DHT22;50211;52.768;12.124;2022-12-26T07:26:47;8.90;99.90
64012;DHT22;50211;52.768;12.124;2022-12-26T07:29:14;8.80;99.90
64012;DHT22;50211;52.768;12.124;2022-12-26T07:31:40;8.90;99.90
64012;DHT22;50211;52.768;12.124;2022-12-26T07:34:06;8.90;99.90
64012;DHT22;50211;52.768;12.124;2022-12-26T07:36:31;9.00;99.90
64012;DHT22;50211;52.768;12.124;2022-12-26T07:38:57;9.00;99.90
64012;DHT22;50211;52.768;12.124;2022-12-26T07:41:23;9.00;99.90
64012;DHT22;50211;52.768;12.124;2022-12-26T07:44:29;9.10;99.90
64012;DHT22;50211;52.768;12.124;2022-12-26T07:46:55;9.10;99.90
64012;DHT22;50211;52.768;12.124;2022-12-26T07:49:21;9.10;99.90
64012;DHT22;50211;52.768;12.124;2022-12-26T07:51:47;9.10;99.90
64012;DHT22;50211;52.768;12.124;2022-12-26T07:54:13;9.10;99.90
64012;DHT22;50211;52.768;12.124;2022-12-26T07:56:40;9.10;99.90
64012;DHT22;50211;52.768;12.124;2022-12-26T07:59:06;9.20;99.90
64012;DHT22;50211;52.768;12.124;2022-12-26T08:01:32;9.30;99.90
64012;DHT22;50211;52.768;12.124;2022-12-26T08:03:57;9.30;99.90
64012;DHT22;50211;52.768;12.124;2022-12-26T08:06:23;9.30;99.90
64012;DHT22;50211;52.768;12.124;2022-12-26T08:08:49;9.40;99.90
64012;DHT22;50211;52.768;12.124;2022-12-26T08:11:17;9.40;99.90
64012;DHT22;50211;52.768;12.124;2022-12-26T08:13:43;9.40;99.90
64012;DHT22;50211;52.768;12.124;2022-12-26T08:16:11;9.40;99.90
64012;DHT22;50211;52.768;12.124;2022-12-26T08:18:37;9.40;99.90
64012;DHT22;50211;52.768;12.124;2022-12-26T08:21:03;9.40;99.90
64012;DHT22;50211;52.768;12.124;2022-12-26T08:23:28;9.40;99.90
64012;DHT22;50211;52.768;12.124;2022-12-26T08:25:54;9.40;99.90
64012;DHT22;50211;52.768;12.124;2022-12-26T08:28:20;9.40;99.90
64012;DHT22;50211;52.768;12.124;2022-12-26T08:30:46;9.40;99.90
64012;DHT22;50211;52.768;12.124;2022-12-26T08:33:13;9.40;99.90
64012;DHT22;50211;52.768;12.124;2022-12-26T08:35:39;9.50;99.90
64012;DHT22;50211;52.768;12.124;2022-12-26T08:38:05;9.40;99.90
64012;DHT22;50211;52.768;12.124;2022-12-26T08:40:31;9.40;99.90
64012;DHT22;50211;52.768;12.124;2022-12-26T08:42:56;9.50;99.90
64012;DHT22;50211;52.768;12.124;2022-12-26T08:45:22;9.50;99.90
64012;DHT22;50211;52.768;12.124;2022-12-26T08:47:49;9.50;99.90
64012;DHT22;50211;52.768;12.124;2022-12-26T08:50:15;9.50;99.90
64012;DHT22;50211;52.768;12.124;2022-12-26T08:52:41;9.50;99.90
64012;DHT22;50211;52.768;12.124;2022-12-26T08:55:07;9.50;99.90
64012;DHT22;50211;52.768;12.124;2022-12-26T08:57:32;9.40;99.90
64012;DHT22;50211;52.768;12.124;2022-12-26T08:59:58;9.40;99.90
64012;DHT22;50211;52.768;12.124;2022-12-26T09:02:23;9.40;99.90
64012;DHT22;50211;52.768;12.124;2022-12-26T09:04:50;9.40;99.90
64012;DHT22;50211;52.768;12.124;2022-12-26T09:07:15;9.40;99.90
64012;DHT22;50211;52.768;12.124;2022-12-26T09:09:41;9.40;99.90
64012;DHT22;50211;52.768;12.124;2022-12-26T09:12:06;9.40;99.90
64012;DHT22;50211;52.768;12.124;2022-12-26T09:14:32;9.40;99.90
64012;DHT22;50211;52.768;12.124;2022-12-26T09:16:58;9.40;99.90
64012;DHT22;50211;52.768;12.124;2022-12-26T09:19:23;9.40;99.90
64012;DHT22;50211;52.768;12.124;2022-12-26T09:21:49;9.40;99.90
64012;DHT22;50211;52.768;12.124;2022-12-26T09:24:35;9.40;99.90
64012;DHT22;50211;52.768;12.124;2022-12-26T09:27:00;9.40;99.90
64012;DHT22;50211;52.768;12.124;2022-12-26T09:29:26;9.40;99.90
64012;DHT22;50211;52.768;12.124;2022-12-26T09:31:54;9.40;99.90
64012;DHT22;50211;52.768;12.124;2022-12-26T09:34:19;9.40;99.90
64012;DHT22;50211;52.768;12.124;2022-12-26T09:36:45;9.40;99.90
64012;DHT22;50211;52.768;12.124;2022-12-26T09:39:11;9.40;99.90
64012;DHT22;50211;52.768;12.124;2022-12-26T09:46:47;9.40;99.90
64012;DHT22;50211;52.768;12.124;2022-12-26T09:49:27;9.40;99.90
64012;DHT22;50211;52.768;12.124;2022-12-26T09:51:57;9.40;99.90
64012;DHT22;50211;52.768;12.124;2022-12-26T09:54:33;9.40;99.90
64012;DHT22;50211;52.768;12.124;2022-12-26T09:57:01;9.40;99.90
64012;DHT22;50211;52.768;12.124;2022-12-26T09:59:31;9.40;99.90
64012;DHT22;50211;52.768;12.124;2022-12-26T10:01:58;9.40;99.90
64012;DHT22;50211;52.768;12.124;2022-12-26T10:04:27;9.40;99.90
64012;DHT22;50211;52.768;12.124;2022-12-26T10:09:54;9.40;99.90
64012;DHT22;50211;52.768;12.124;2022-12-26T10:12:35;9.30;99.90
64012;DHT22;50211;52.768;12.124;2022-12-26T10:15:28;9.30;99.90
64012;DHT22;50211;52.768;12.124;2022-12-26T10:23:29;9.30;99.90
64012;DHT22;50211;52.768;12.124;2022-12-26T10:26:21;9.30;99.90
64012;DHT22;50211;52.768;12.124;2022-12-26T10:28:58;9.30;99.90
64012;DHT22;50211;52.768;12.124;2022-12-26T10:31:29;9.30;99.90
64012;DHT22;50211;52.768;12.124;2022-12-26T10:34:22;9.30;99.90
64012;DHT22;50211;52.768;12.124;2022-12-26T10:36:53;9.30;99.90
64012;DHT22;50211;52.768;12.124;2022-12-26T10:39:27;9.30;99.90
64012;DHT22;50211;52.768;12.124;2022-12-26T10:41:57;9.30;99.90
64012;DHT22;50211;52.768;12.124;2022-12-26T10:44:23;9.20;99.90
64012;DHT22;50211;52.768;12.124;2022-12-26T10:47:13;9.30;99.90
64012;DHT22;50211;52.768;12.124;2022-12-26T10:49:42;9.30;99.90
64012;DHT22;50211;52.768;12.124;2022-12-26T10:52:09;9.30;99.90
64012;DHT22;50211;52.768;12.124;2022-12-26T10:54:36;9.30;99.90
64012;DHT22;50211;52.768;12.124;2022-12-26T10:57:02;9.30;99.90
64012;DHT22;50211;52.768;12.124;2022-12-26T10:59:48;9.40;99.90
64012;DHT22;50211;52.768;12.124;2022-12-26T11:02:25;9.40;99.90
64012;DHT22;50211;52.768;12.124;2022-12-26T11:05:05;9.30;99.90
64012;DHT22;50211;52.768;12.124;2022-12-26T11:07:38;9.40;99.90
64012;DHT22;50211;52.768;12.124;2022-12-26T11:10:13;9.40;99.90
64012;DHT22;50211;52.768;12.124;2022-12-26T11:12:52;9.40;99.90
64012;DHT22;50211;52.768;12.124;2022-12-26T11:18:15;9.40;99.90
64012;DHT22;50211;52.768;12.124;2022-12-26T11:20:42;9.40;99.90
64012;DHT22;50211;52.768;12.124;2022-12-26T11:23:28;9.40;99.90
64012;DHT22;50211;52.768;12.124;2022-12-26T11:25:59;9.40;99.90
64012;DHT22;50211;52.768;12.124;2022-12-26T11:28:29;9.40;99.90
64012;DHT22;50211;52.768;12.124;2022-12-26T11:30:54;9.40;99.90
64012;DHT22;50211;52.768;12.124;2022-12-26T11:33:43;9.40;99.90
64012;DHT22;50211;52.768;12.124;2022-12-26T11:36:21;9.40;99.90
64012;DHT22;50211;52.768;12.124;2022-12-26T11:38:55;9.40;99.90
64012;DHT22;50211;52.768;12.124;2022-12-26T11:44:00;9.40;99.90
64012;DHT22;50211;52.768;12.124;2022-12-26T11:46:57;9.40;99.90
64012;DHT22;50211;52.768;12.124;2022-12-26T11:49:36;9.30;99.90
64012;DHT22;50211;52.768;12.124;2022-12-26T11:57:57;9.60;99.90
64012;DHT22;50211;52.768;12.124;2022-12-26T12:00:23;9.60;99.90
64012;DHT22;50211;52.768;12.124;2022-12-26T12:02:50;9.60;99.90
64012;DHT22;50211;52.768;12.124;2022-12-26T12:08:12;9.70;99.90
64012;DHT22;50211;52.768;12.124;2022-12-26T12:16:44;10.20;99.90
64012;DHT22;50211;52.768;12.124;2022-12-26T12:19:25;10.20;99.90
64012;DHT22;50211;52.768;12.124;2022-12-26T12:25:15;10.20;99.90
64012;DHT22;50211;52.768;12.124;2022-12-26T12:27:56;10.20;99.90
64012;DHT22;50211;52.768;12.124;2022-12-26T12:30:34;10.20;99.90
64012;DHT22;50211;52.768;12.124;2022-12-26T12:45:33;10.10;99.90
64012;DHT22;50211;52.768;12.124;2022-12-26T12:48:25;10.10;99.90
64012;DHT22;50211;52.768;12.124;2022-12-26T12:51:22;10.10;99.90
64012;DHT22;50211;52.768;12.124;2022-12-26T12:54:00;10.10;99.90
64012;DHT22;50211;52.768;12.124;2022-12-26T12:56:59;10.10;99.90
64012;DHT22;50211;52.768;12.124;2022-12-26T13:02:28;10.10;99.90
64012;DHT22;50211;52.768;12.124;2022-12-26T13:05:04;10.10;99.90
64012;DHT22;50211;52.768;12.124;2022-12-26T13:07:35;10.20;99.90
64012;DHT22;50211;52.768;12.124;2022-12-26T13:10:05;10.20;99.90
64012;DHT22;50211;52.768;12.124;2022-12-26T13:12:38;10.20;99.90
64012;DHT22;50211;52.768;12.124;2022-12-26T13:15:22;10.20;99.90
64012;DHT22;50211;52.768;12.124;2022-12-26T13:18:02;10.30;99.90
64012;DHT22;50211;52.768;12.124;2022-12-26T13:20:43;10.30;99.90
64012;DHT22;50211;52.768;12.124;2022-12-26T13:23:21;10.30;99.90
64012;DHT22;50211;52.768;12.124;2022-12-26T13:26:13;10.30;99.90
64012;DHT22;50211;52.768;12.124;2022-12-26T13:28:52;10.30;99.90
64012;DHT22;50211;52.768;12.124;2022-12-26T13:31:19;10.30;99.90
64012;DHT22;50211;52.768;12.124;2022-12-26T13:33:45;10.30;99.90
64012;DHT22;50211;52.768;12.124;2022-12-26T13:36:35;10.30;99.90
64012;DHT22;50211;52.768;12.124;2022-12-26T13:41:27;10.30;99.90
64012;DHT22;50211;52.768;12.124;2022-12-26T13:49:31;10.30;99.90
64012;DHT22;50211;52.768;12.124;2022-12-26T13:54:37;10.20;99.90
64012;DHT22;50211;52.768;12.124;2022-12-26T13:57:42;10.20;99.90
64012;DHT22;50211;52.768;12.124;2022-12-26T14:06:06;10.20;99.90
64012;DHT22;50211;52.768;12.124;2022-12-26T14:09:01;10.10;99.90
64012;DHT22;50211;52.768;12.124;2022-12-26T14:17:45;10.20;99.90
64012;DHT22;50211;52.768;12.124;2022-12-26T14:23:30;10.10;99.90
64012;DHT22;50211;52.768;12.124;2022-12-26T14:28:52;10.00;99.90
64012;DHT22;50211;52.768;12.124;2022-12-26T14:37:02;9.90;99.90
64012;DHT22;50211;52.768;12.124;2022-12-26T14:42:23;9.80;99.90
64012;DHT22;50211;52.768;12.124;2022-12-26T14:47:56;9.80;99.90
64012;DHT22;50211;52.768;12.124;2022-12-26T14:55:58;9.80;99.90
64012;DHT22;50211;52.768;12.124;2022-12-26T15:14:52;9.80;99.90
64012;DHT22;50211;52.768;12.124;2022-12-26T15:17:46;9.70;99.90
64012;DHT22;50211;52.768;12.124;2022-12-26T15:23:21;9.60;99.90
64012;DHT22;50211;52.768;12.124;2022-12-26T15:40:09;9.10;99.90
64012;DHT22;50211;52.768;12.124;2022-12-26T15:42:39;9.10;99.90
64012;DHT22;50211;52.768;12.124;2022-12-26T15:48:01;8.90;99.90
64012;DHT22;50211;52.768;12.124;2022-12-26T15:58:44;8.60;99.90
64012;DHT22;50211;52.768;12.124;2022-12-26T16:01:12;8.50;99.90
64012;DHT22;50211;52.768;12.124;2022-12-26T16:03:48;8.50;99.90
64012;DHT22;50211;52.768;12.124;2022-12-26T16:09:12;8.40;99.90
64012;DHT22;50211;52.768;12.124;2022-12-26T16:11:58;8.40;99.90
64012;DHT22;50211;52.768;12.124;2022-12-26T16:16:54;8.30;99.90
64012;DHT22;50211;52.768;12.124;2022-12-26T16:19:33;8.30;99.90
64012;DHT22;50211;52.768;12.124;2022-12-26T16:22:01;8.30;99.90
64012;DHT22;50211;52.768;12.124;2022-12-26T16:24:48;8.30;99.90
64012;DHT22;50211;52.768;12.124;2022-12-26T16:27:21;8.40;99.90
64012;DHT22;50211;52.768;12.124;2022-12-26T16:29:56;8.40;99.90
64012;DHT22;50211;52.768;12.124;2022-12-26T16:32:29;8.40;99.90
64012;DHT22;50211;52.768;12.124;2022-12-26T16:34:57;8.40;99.90
64012;DHT22;50211;52.768;12.124;2022-12-26T16:37:24;8.40;99.90
64012;DHT22;50211;52.768;12.124;2022-12-26T16:40:17;8.40;99.90
64012;DHT22;50211;52.768;12.124;2022-12-26T16:43:03;8.30;99.90
64012;DHT22;50211;52.768;12.124;2022-12-26T16:45:33;8.30;99.90
64012;DHT22;50211;52.768;12.124;2022-12-26T16:48:00;8.30;99.90
64012;DHT22;50211;52.768;12.124;2022-12-26T16:50:29;8.30;99.90
64012;DHT22;50211;52.768;12.124;2022-12-26T16:53:15;8.20;99.90
64012;DHT22;50211;52.768;12.124;2022-12-26T16:55:47;8.30;99.90
64012;DHT22;50211;52.768;12.124;2022-12-26T16:58:21;8.30;99.90
64012;DHT22;50211;52.768;12.124;2022-12-26T17:01:00;8.30;99.90
64012;DHT22;50211;52.768;12.124;2022-12-26T17:03:32;8.30;99.90
64012;DHT22;50211;52.768;12.124;2022-12-26T17:05:58;8.30;99.90
64012;DHT22;50211;52.768;12.124;2022-12-26T17:08:24;8.30;99.90
64012;DHT22;50211;52.768;12.124;2022-12-26T17:10:51;8.20;99.90
64012;DHT22;50211;52.768;12.124;2022-12-26T17:13:21;8.20;99.90
64012;DHT22;50211;52.768;12.124;2022-12-26T17:15:54;8.10;99.90
64012;DHT22;50211;52.768;12.124;2022-12-26T17:18:44;8.00;99.90
64012;DHT22;50211;52.768;12.124;2022-12-26T17:21:17;7.80;99.90
64012;DHT22;50211;52.768;12.124;2022-12-26T17:23:43;7.60;99.90
64012;DHT22;50211;52.768;12.124;2022-12-26T17:26:27;7.60;99.90
64012;DHT22;50211;52.768;12.124;2022-12-26T17:28:53;7.50;99.90
64012;DHT22;50211;52.768;12.124;2022-12-26T17:31:26;7.40;99.90
64012;DHT22;50211;52.768;12.124;2022-12-26T17:33:58;7.30;99.90
64012;DHT22;50211;52.768;12.124;2022-12-26T17:36:30;7.20;99.90
64012;DHT22;50211;52.768;12.124;2022-12-26T17:38:56;7.10;99.90
64012;DHT22;50211;52.768;12.124;2022-12-26T17:41:21;7.20;99.90
64012;DHT22;50211;52.768;12.124;2022-12-26T17:43:48;7.20;99.90
64012;DHT22;50211;52.768;12.124;2022-12-26T17:46:16;7.20;99.90
64012;DHT22;50211;52.768;12.124;2022-12-26T17:48:42;7.10;99.90
64012;DHT22;50211;52.768;12.124;2022-12-26T17:51:14;7.10;99.90
64012;DHT22;50211;52.768;12.124;2022-12-26T17:53:42;7.00;99.90
64012;DHT22;50211;52.768;12.124;2022-12-26T17:56:17;7.00;99.90
64012;DHT22;50211;52.768;12.124;2022-12-26T17:58:45;7.00;99.90
64012;DHT22;50211;52.768;12.124;2022-12-26T18:01:11;6.90;99.90
64012;DHT22;50211;52.768;12.124;2022-12-26T18:03:36;6.90;99.90
64012;DHT22;50211;52.768;12.124;2022-12-26T18:06:02;6.90;99.90
64012;DHT22;50211;52.768;12.124;2022-12-26T18:08:33;6.80;99.90
64012;DHT22;50211;52.768;12.124;2022-12-26T18:11:02;6.90;99.90
64012;DHT22;50211;52.768;12.124;2022-12-26T18:13:28;6.90;99.90
64012;DHT22;50211;52.768;12.124;2022-12-26T18:15:54;6.90;99.90
64012;DHT22;50211;52.768;12.124;2022-12-26T18:20:52;6.90;99.90
64012;DHT22;50211;52.768;12.124;2022-12-26T18:23:17;6.80;99.90
64012;DHT22;50211;52.768;12.124;2022-12-26T18:25:43;6.80;99.90
64012;DHT22;50211;52.768;12.124;2022-12-26T18:28:14;6.80;99.90
64012;DHT22;50211;52.768;12.124;2022-12-26T18:30:40;6.80;99.90
64012;DHT22;50211;52.768;12.124;2022-12-26T18:33:08;6.70;99.90
64012;DHT22;50211;52.768;12.124;2022-12-26T18:35:35;6.60;99.90
64012;DHT22;50211;52.768;12.124;2022-12-26T18:38:00;6.50;99.90
64012;DHT22;50211;52.768;12.124;2022-12-26T18:40:33;6.50;99.90
64012;DHT22;50211;52.768;12.124;2022-12-26T18:43:00;6.40;99.90
64012;DHT22;50211;52.768;12.124;2022-12-26T18:45:26;6.40;99.90
64012;DHT22;50211;52.768;12.124;2022-12-26T18:47:52;6.40;99.90
64012;DHT22;50211;52.768;12.124;2022-12-26T18:50:18;6.30;99.90
64012;DHT22;50211;52.768;12.124;2022-12-26T18:52:44;6.30;99.90
64012;DHT22;50211;52.768;12.124;2022-12-26T18:55:10;6.30;99.90
64012;DHT22;50211;52.768;12.124;2022-12-26T18:57:35;6.30;99.90
64012;DHT22;50211;52.768;12.124;2022-12-26T19:00:02;6.20;99.90
64012;DHT22;50211;52.768;12.124;2022-12-26T19:02:28;6.20;99.90
64012;DHT22;50211;52.768;12.124;2022-12-26T19:04:53;6.20;99.90
64012;DHT22;50211;52.768;12.124;2022-12-26T19:07:19;6.10;99.90
64012;DHT22;50211;52.768;12.124;2022-12-26T19:09:49;6.10;99.90
64012;DHT22;50211;52.768;12.124;2022-12-26T19:12:16;6.00;99.90